Time;durP1;ratioP1;P1;durP2;ratioP2;P2;SDS_P1;SDS_P2;PMS_P1;PMS_P2;Temp;Humidity;BMP_temperature;BMP_pressure;BME280_temperature;BME280_humidity;BME280_pressure;Samples;Min_cycle;Max_cycle;Signal;HPM_P1;HPM_P2
2022/11/22 00:01:10;;;;;;;4.95;4.53;;;6.70;99.90;;;;;;5072839;28;20666;-63
2022/11/22 00:03:38;;;;;;;6.72;4.57;;;6.70;99.90;;;;;;5071779;28;20615;-64
2022/11/22 00:06:06;;;;;;;8.70;4.75;;;6.60;99.90;;;;;;5066897;28;20195;-64
2022/11/22 00:08:34;;;;;;;6.88;5.10;;;6.60;99.90;;;;;;5073169;28;20208;-64
2022/11/22 00:11:02;;;;;;;9.23;5.80;;;6.70;99.90;;;;;;5071934;28;20691;-64
2022/11/22 00:13:30;;;;;;;10.13;5.53;;;6.60;99.90;;;;;;5072905;28;20218;-64
2022/11/22 00:16:00;;;;;;;8.93;5.15;;;6.60;99.90;;;;;;5072503;28;20211;-64
2022/11/22 00:18:29;;;;;;;7.07;5.90;;;6.70;99.90;;;;;;5071931;28;20591;-64
2022/11/22 00:20:57;;;;;;;9.18;6.20;;;6.60;99.90;;;;;;5072144;28;20659;-64
2022/11/22 00:23:24;;;;;;;8.20;5.97;;;6.60;99.90;;;;;;5070957;28;20249;-64
2022/11/22 00:25:52;;;;;;;10.23;5.85;;;6.60;99.90;;;;;;5072118;28;20211;-64
2022/11/22 00:28:20;;;;;;;9.73;6.55;;;6.60;99.90;;;;;;5072066;28;20663;-64
2022/11/22 00:30:48;;;;;;;14.55;7.28;;;6.60;99.90;;;;;;5092181;28;20196;-64
2022/11/22 00:33:17;;;;;;;12.35;6.43;;;6.60;99.90;;;;;;5092662;28;20252;-64
2022/11/22 00:35:45;;;;;;;11.75;6.70;;;6.60;99.90;;;;;;5092944;28;20539;-64
2022/11/22 00:38:13;;;;;;;16.73;6.97;;;6.60;99.90;;;;;;5092111;28;20199;-64
2022/11/22 00:40:41;;;;;;;8.38;6.57;;;6.70;99.90;;;;;;5092822;28;20213;-64
2022/11/22 00:43:09;;;;;;;9.75;6.80;;;6.70;99.90;;;;;;5092002;28;20569;-64
2022/11/22 00:45:36;;;;;;;13.75;6.95;;;6.70;99.90;;;;;;5092704;28;20199;-64
2022/11/22 00:48:05;;;;;;;9.77;6.45;;;6.80;99.90;;;;;;5092184;28;20688;-64
2022/11/22 00:50:34;;;;;;;7.10;6.40;;;6.80;99.90;;;;;;5086213;28;20206;-64
2022/11/22 00:53:02;;;;;;;12.45;6.40;;;6.80;99.90;;;;;;5071637;28;20706;-64
2022/11/22 00:55:30;;;;;;;9.10;6.22;;;6.80;99.90;;;;;;5069955;28;20192;-64
2022/11/22 00:57:58;;;;;;;8.35;7.15;;;6.90;99.90;;;;;;5069895;28;20196;-64
2022/11/22 01:00:26;;;;;;;11.82;7.65;;;6.90;99.90;;;;;;5061708;28;20204;-64
2022/11/22 01:02:54;;;;;;;8.43;6.53;;;6.90;99.90;;;;;;5051145;28;20200;-64
2022/11/22 01:05:22;;;;;;;6.63;5.45;;;7.00;99.90;;;;;;5068643;28;20219;-64
2022/11/22 01:07:51;;;;;;;9.38;6.55;;;7.00;99.90;;;;;;5070563;28;20207;-64
2022/11/22 01:10:19;;;;;;;10.18;6.90;;;7.10;99.90;;;;;;5071791;28;20207;-64
2022/11/22 01:12:47;;;;;;;9.25;6.45;;;7.10;99.90;;;;;;5071799;28;20273;-65
2022/11/22 01:15:14;;;;;;;8.80;6.28;;;7.10;99.90;;;;;;5072341;28;20200;-64
2022/11/22 01:17:42;;;;;;;9.57;5.97;;;7.10;99.90;;;;;;5052813;28;20201;-64
2022/11/22 01:20:11;;;;;;;8.68;6.00;;;7.20;99.90;;;;;;5051757;28;20208;-65
2022/11/22 01:22:38;;;;;;;8.00;5.05;;;7.20;99.90;;;;;;5057800;28;20191;-65
2022/11/22 01:25:09;;;;;;;8.13;6.18;;;7.20;99.90;;;;;;5092374;28;20272;-64
2022/11/22 01:27:37;;;;;;;8.20;5.63;;;7.20;99.90;;;;;;5092091;28;20175;-64
2022/11/22 01:30:06;;;;;;;8.73;5.10;;;7.20;99.90;;;;;;5092253;28;20207;-64
2022/11/22 01:32:34;;;;;;;7.75;5.78;;;7.20;99.90;;;;;;5091867;28;20215;-64
2022/11/22 01:35:02;;;;;;;8.85;5.35;;;7.20;99.90;;;;;;5092214;28;20214;-64
2022/11/22 01:37:29;;;;;;;7.93;6.25;;;7.20;99.90;;;;;;5092019;28;20662;-64
2022/11/22 01:39:57;;;;;;;7.53;6.07;;;7.20;99.90;;;;;;5096109;28;20203;-64
2022/11/22 01:42:41;;;;;;;9.98;6.40;;;7.20;99.90;;;;;;5095691;28;20192;-64
2022/11/22 01:45:42;;;;;;;7.03;5.20;;;7.20;99.90;;;;;;5094940;28;20183;-64
2022/11/22 01:48:34;;;;;;;8.77;5.82;;;7.10;99.90;;;;;;5095366;28;20207;-64
2022/11/22 01:51:05;;;;;;;7.97;6.20;;;7.10;99.90;;;;;;5096149;28;20191;-64
2022/11/22 01:53:36;;;;;;;16.83;5.85;;;7.10;99.90;;;;;;5081822;28;20670;-64
2022/11/22 01:56:08;;;;;;;10.77;6.47;;;7.10;99.90;;;;;;5075120;28;20631;-64
2022/11/22 01:58:40;;;;;;;13.07;5.93;;;7.10;99.90;;;;;;5074869;28;20184;-64
2022/11/22 02:01:08;;;;;;;10.57;5.63;;;7.10;99.90;;;;;;5072995;28;20196;-64
2022/11/22 02:03:41;;;;;;;9.77;5.60;;;7.10;99.90;;;;;;5069080;28;20196;-65
2022/11/22 02:06:10;;;;;;;9.82;5.60;;;7.10;99.90;;;;;;5055963;28;20197;-64
2022/11/22 02:08:44;;;;;;;13.40;6.40;;;7.00;99.90;;;;;;5074793;28;20235;-63
2022/11/22 02:11:14;;;;;;;5.25;4.72;;;7.00;99.90;;;;;;5065084;28;20706;-63
2022/11/22 02:13:45;;;;;;;7.30;5.22;;;7.00;99.90;;;;;;5073629;28;20560;-64
2022/11/22 02:16:13;;;;;;;10.98;6.30;;;7.00;99.90;;;;;;5062887;28;20594;-63
2022/11/22 02:18:41;;;;;;;12.63;5.80;;;7.00;99.90;;;;;;5075028;28;20204;-63
2022/11/22 02:21:09;;;;;;;18.85;6.28;;;7.00;99.90;;;;;;5058603;28;20647;-63
2022/11/22 02:23:45;;;;;;;5.53;4.70;;;7.00;99.90;;;;;;5055233;28;20204;-63
2022/11/22 02:26:15;;;;;;;8.40;5.35;;;7.00;99.90;;;;;;5054101;28;20199;-63
2022/11/22 02:28:43;;;;;;;9.82;6.15;;;7.00;99.90;;;;;;5054926;28;20243;-64
2022/11/22 02:31:33;;;;;;;9.90;6.95;;;7.00;99.90;;;;;;5052772;28;20219;-64
2022/11/22 02:34:00;;;;;;;6.82;5.93;;;7.00;99.90;;;;;;5054949;28;20205;-63
2022/11/22 02:36:30;;;;;;;7.75;5.75;;;7.00;99.90;;;;;;5054079;28;20201;-63
2022/11/22 02:38:58;;;;;;;5.95;4.80;;;7.00;99.90;;;;;;5054937;28;20203;-64
2022/11/22 02:41:27;;;;;;;8.80;5.85;;;7.00;99.90;;;;;;5053875;28;20205;-64
2022/11/22 02:43:55;;;;;;;13.52;6.15;;;7.00;99.90;;;;;;5054809;28;20266;-65
2022/11/22 02:46:23;;;;;;;10.43;5.03;;;7.00;99.90;;;;;;5053699;28;20200;-65
2022/11/22 02:48:51;;;;;;;10.98;5.60;;;7.00;99.90;;;;;;5053965;28;20208;-65
2022/11/22 02:51:19;;;;;;;15.63;6.57;;;7.00;99.90;;;;;;5053452;28;20219;-65
2022/11/22 02:53:51;;;;;;;14.90;5.50;;;7.00;99.90;;;;;;5054056;28;20580;-65
2022/11/22 02:56:19;;;;;;;14.32;5.90;;;7.00;99.90;;;;;;5054200;28;20543;-65
2022/11/22 02:58:48;;;;;;;12.93;5.32;;;7.00;99.90;;;;;;5054015;28;20200;-65
2022/11/22 03:01:16;;;;;;;9.25;4.70;;;7.00;99.90;;;;;;5053548;28;20216;-65
2022/11/22 03:03:44;;;;;;;9.63;5.30;;;7.00;99.90;;;;;;5052636;28;20211;-64
2022/11/22 03:06:12;;;;;;;6.85;5.50;;;7.00;99.90;;;;;;5053232;28;20628;-64
2022/11/22 03:08:40;;;;;;;8.85;4.63;;;7.00;99.90;;;;;;5069397;28;20206;-65
2022/11/22 03:11:08;;;;;;;11.38;4.80;;;7.00;99.90;;;;;;5073710;28;20285;-65
2022/11/22 03:13:36;;;;;;;9.88;4.95;;;7.10;99.90;;;;;;5073689;28;20219;-65
2022/11/22 03:16:05;;;;;;;14.80;5.07;;;7.10;99.90;;;;;;5073745;28;20602;-65
2022/11/22 03:18:33;;;;;;;11.45;4.70;;;7.10;99.90;;;;;;5072950;28;20199;-64
2022/11/22 03:21:02;;;;;;;7.72;4.82;;;7.10;99.90;;;;;;5073484;28;20203;-63
2022/11/22 03:23:30;;;;;;;8.50;4.25;;;7.20;99.90;;;;;;5071337;28;20200;-65
2022/11/22 03:25:58;;;;;;;11.88;4.70;;;7.20;99.90;;;;;;5057764;28;20564;-65
2022/11/22 03:28:26;;;;;;;6.90;4.45;;;7.20;99.90;;;;;;5052734;28;20242;-65
2022/11/22 03:30:54;;;;;;;10.05;4.03;;;7.20;99.90;;;;;;5053533;28;20261;-64
2022/11/22 03:33:23;;;;;;;15.48;4.70;;;7.20;99.90;;;;;;5053293;28;20567;-65
2022/11/22 03:35:54;;;;;;;14.10;4.57;;;7.20;99.90;;;;;;5053259;28;20204;-62
2022/11/22 03:38:22;;;;;;;22.10;6.97;;;7.20;99.90;;;;;;5052891;28;20189;-64
2022/11/22 03:40:50;;;;;;;17.00;5.85;;;7.10;99.90;;;;;;5053237;28;20211;-64
2022/11/22 03:43:18;;;;;;;12.80;4.13;;;7.20;99.90;;;;;;5052840;28;20223;-64
2022/11/22 03:45:46;;;;;;;12.63;4.10;;;7.20;99.90;;;;;;5053423;28;20200;-64
2022/11/22 03:48:15;;;;;;;15.32;3.90;;;7.20;99.90;;;;;;5053145;28;20196;-64
2022/11/22 03:50:44;;;;;;;14.38;3.50;;;7.20;99.90;;;;;;5068141;28;20191;-64
2022/11/22 03:53:13;;;;;;;11.30;4.60;;;7.20;99.90;;;;;;5065308;28;20273;-64
2022/11/22 03:55:41;;;;;;;14.20;3.65;;;7.20;99.90;;;;;;5070652;28;20211;-64
2022/11/22 03:58:09;;;;;;;13.50;3.08;;;7.20;99.90;;;;;;5071077;28;20188;-64
2022/11/22 04:00:36;;;;;;;19.48;3.80;;;7.20;99.90;;;;;;5071658;28;20215;-63
2022/11/22 04:03:04;;;;;;;19.70;4.45;;;7.20;99.90;;;;;;5056636;28;20443;-63
2022/11/22 04:05:32;;;;;;;11.80;2.95;;;7.20;99.90;;;;;;5051199;28;20213;-63
2022/11/22 04:08:01;;;;;;;17.83;3.95;;;7.10;99.90;;;;;;5061439;28;20203;-64
2022/11/22 04:10:29;;;;;;;24.63;3.60;;;7.10;99.90;;;;;;5056134;28;20196;-64
2022/11/22 04:12:58;;;;;;;12.70;3.70;;;7.10;99.90;;;;;;5063683;28;20238;-63
2022/11/22 04:15:25;;;;;;;19.98;4.45;;;7.10;99.90;;;;;;5052299;28;20197;-63
2022/11/22 04:17:53;;;;;;;14.45;2.85;;;7.00;99.90;;;;;;5069510;28;20564;-65
2022/11/22 04:23:11;;;;;;;10.48;3.75;;;6.90;99.90;;;;;;5072622;28;20199;-63
2022/11/22 04:25:39;;;;;;;13.13;3.10;;;6.90;99.90;;;;;;5071090;28;20186;-64
2022/11/22 04:28:10;;;;;;;22.08;3.22;;;6.80;99.90;;;;;;5070335;28;20228;-65
2022/11/22 04:33:25;;;;;;;11.70;2.85;;;6.80;99.90;;;;;;5051012;28;20610;-64
2022/11/22 04:35:53;;;;;;;8.35;3.40;;;6.80;99.90;;;;;;5052356;28;20208;-63
2022/11/22 04:38:23;;;;;;;6.63;2.88;;;6.80;99.90;;;;;;5051992;28;20581;-63
2022/11/22 04:40:51;;;;;;;9.68;2.83;;;6.80;99.90;;;;;;5052471;28;20208;-63
2022/11/22 04:46:08;;;;;;;12.20;3.42;;;6.80;99.90;;;;;;5052597;28;20185;-63
2022/11/22 04:48:36;;;;;;;15.48;3.45;;;6.80;99.90;;;;;;5052020;28;20203;-63
2022/11/22 04:53:52;;;;;;;9.23;2.38;;;6.70;99.90;;;;;;5050439;28;20217;-63
2022/11/22 04:56:20;;;;;;;15.95;3.80;;;6.70;99.90;;;;;;5052648;28;20200;-64
2022/11/22 04:58:50;;;;;;;13.63;2.67;;;6.70;99.90;;;;;;5051764;28;20228;-64
2022/11/22 05:01:18;;;;;;;6.15;2.15;;;6.80;99.90;;;;;;5052004;28;20201;-63
2022/11/22 05:03:46;;;;;;;14.05;2.33;;;6.70;99.90;;;;;;5049505;28;20201;-64
2022/11/22 05:06:14;;;;;;;12.70;2.40;;;6.70;99.90;;;;;;5067014;28;20204;-64
2022/11/22 05:08:42;;;;;;;5.85;3.15;;;6.70;99.90;;;;;;5071454;28;20204;-64
2022/11/22 05:11:11;;;;;;;14.15;2.55;;;6.60;99.90;;;;;;5067302;28;20223;-64
2022/11/22 05:13:41;;;;;;;7.18;3.88;;;6.60;99.90;;;;;;5073593;28;20211;-64
2022/11/22 05:16:12;;;;;;;7.95;3.10;;;6.50;99.90;;;;;;5069652;28;20652;-64
2022/11/22 05:18:40;;;;;;;12.70;3.50;;;6.50;99.90;;;;;;5056879;28;20193;-64
2022/11/22 05:21:11;;;;;;;11.55;2.47;;;6.50;99.90;;;;;;5059281;28;20204;-63
2022/11/22 05:23:53;;;;;;;18.48;4.45;;;6.50;99.90;;;;;;5058519;28;20250;-63
2022/11/22 05:26:24;;;;;;;9.60;3.80;;;6.40;99.90;;;;;;5063227;28;20185;-64
2022/11/22 05:28:52;;;;;;;16.73;3.92;;;6.40;99.90;;;;;;5061340;28;20215;-64
2022/11/22 05:31:27;;;;;;;16.15;5.32;;;6.40;99.90;;;;;;5063827;28;20196;-64
2022/11/22 05:33:56;;;;;;;8.45;3.80;;;6.40;99.90;;;;;;5055546;28;20207;-64
2022/11/22 05:36:25;;;;;;;11.63;3.47;;;6.30;99.90;;;;;;5075895;28;20203;-64
2022/11/22 05:38:53;;;;;;;16.77;3.97;;;6.30;99.90;;;;;;5075772;28;20207;-64
2022/11/22 05:41:22;;;;;;;18.63;3.72;;;6.30;99.90;;;;;;5074764;28;20223;-64
2022/11/22 05:43:50;;;;;;;14.18;3.25;;;6.30;99.90;;;;;;5075930;28;20580;-64
2022/11/22 05:46:20;;;;;;;15.00;3.40;;;6.30;99.90;;;;;;5073559;28;20270;-64
2022/11/22 05:48:48;;;;;;;15.52;3.00;;;6.30;99.90;;;;;;5055352;28;20511;-64
2022/11/22 05:51:18;;;;;;;13.90;3.00;;;6.20;99.90;;;;;;5064870;28;20245;-64
2022/11/22 05:53:46;;;;;;;15.85;3.50;;;6.20;99.90;;;;;;5075443;28;20227;-65
2022/11/22 05:56:16;;;;;;;9.70;2.38;;;6.20;99.90;;;;;;5057373;28;20200;-64
2022/11/22 05:58:45;;;;;;;12.45;3.85;;;6.10;99.90;;;;;;5074811;28;20219;-64
2022/11/22 06:01:15;;;;;;;15.32;3.17;;;6.10;99.90;;;;;;5075132;28;20281;-64
2022/11/22 06:03:43;;;;;;;12.18;2.85;;;6.00;99.90;;;;;;5073921;28;20647;-64
2022/11/22 06:06:12;;;;;;;26.15;3.65;;;6.00;99.90;;;;;;5074714;28;20208;-64
2022/11/22 06:08:42;;;;;;;5.80;2.85;;;6.00;99.90;;;;;;5057668;28;20212;-64
2022/11/22 06:11:14;;;;;;;16.52;4.00;;;5.90;99.90;;;;;;5066929;28;20216;-64
2022/11/22 06:13:43;;;;;;;15.07;4.53;;;5.90;99.90;;;;;;5066124;28;20585;-64
2022/11/22 06:16:13;;;;;;;11.02;3.28;;;5.90;99.90;;;;;;5065391;28;20193;-64
2022/11/22 06:18:41;;;;;;;15.15;5.97;;;5.90;99.90;;;;;;5054279;28;20744;-64
2022/11/22 06:21:12;;;;;;;21.40;6.28;;;5.90;99.90;;;;;;5054560;28;20211;-64
2022/11/22 06:23:39;;;;;;;19.92;9.77;;;5.80;99.90;;;;;;5054262;28;20197;-64
2022/11/22 06:26:09;;;;;;;24.23;8.55;;;5.80;99.90;;;;;;5060509;28;20208;-65
2022/11/22 06:28:38;;;;;;;13.73;6.68;;;5.80;99.90;;;;;;5058959;28;20224;-64
2022/11/22 06:31:09;;;;;;;5.00;3.42;;;5.80;99.90;;;;;;5059725;28;20204;-64
2022/11/22 06:33:40;;;;;;;17.80;3.80;;;5.80;99.90;;;;;;5055001;28;20304;-64
2022/11/22 06:36:11;;;;;;;11.10;3.70;;;5.80;99.90;;;;;;5059762;28;20212;-64
2022/11/22 06:38:39;;;;;;;22.52;12.38;;;5.70;99.90;;;;;;5064759;28;20563;-64
2022/11/22 06:41:09;;;;;;;16.70;5.88;;;5.70;99.90;;;;;;5062489;28;20247;-65
2022/11/22 06:43:40;;;;;;;15.13;3.53;;;5.80;99.90;;;;;;5063967;28;20196;-64
2022/11/22 06:46:08;;;;;;;18.25;4.03;;;5.80;99.90;;;;;;5060919;28;20273;-64
2022/11/22 06:48:39;;;;;;;9.93;2.63;;;5.90;99.90;;;;;;5054117;28;20197;-65
2022/11/22 06:51:10;;;;;;;22.23;3.70;;;5.90;99.90;;;;;;5061388;28;20201;-64
2022/11/22 06:53:38;;;;;;;15.57;3.30;;;5.90;99.90;;;;;;5053762;28;20197;-64
2022/11/22 06:56:08;;;;;;;17.88;5.30;;;5.90;99.90;;;;;;5059594;28;21368;-64
2022/11/22 06:58:36;;;;;;;14.65;5.28;;;5.90;99.90;;;;;;5054113;28;20213;-64
2022/11/22 07:01:05;;;;;;;27.00;9.30;;;5.90;99.90;;;;;;5053736;28;20255;-64
2022/11/22 07:03:34;;;;;;;10.80;3.05;;;6.00;99.90;;;;;;5053432;28;20201;-63
2022/11/22 07:06:05;;;;;;;7.50;4.28;;;6.00;99.90;;;;;;5053157;28;20682;-63
2022/11/22 07:08:33;;;;;;;23.95;11.07;;;6.00;99.90;;;;;;5054244;28;20266;-63
2022/11/22 07:11:05;;;;;;;33.85;12.88;;;6.00;99.90;;;;;;5054168;28;20295;-63
2022/11/22 07:13:33;;;;;;;8.48;4.63;;;5.90;99.90;;;;;;5058052;28;20197;-63
2022/11/22 07:16:03;;;;;;;12.77;5.03;;;5.90;99.90;;;;;;5065684;28;20667;-63
2022/11/22 07:18:31;;;;;;;12.90;4.05;;;5.90;99.90;;;;;;5057199;28;20211;-63
2022/11/22 07:21:05;;;;;;;10.55;4.65;;;6.00;99.90;;;;;;5069714;28;20211;-63
2022/11/22 07:23:33;;;;;;;9.65;3.20;;;6.00;99.90;;;;;;5055113;28;20566;-63
2022/11/22 07:26:01;;;;;;;13.68;3.65;;;6.00;99.90;;;;;;5067565;28;20677;-64
2022/11/22 07:28:29;;;;;;;9.77;2.72;;;6.10;99.90;;;;;;5065280;28;20228;-63
2022/11/22 07:31:00;;;;;;;9.77;3.28;;;6.00;99.90;;;;;;5073490;28;20218;-64
2022/11/22 07:33:28;;;;;;;9.27;2.85;;;6.00;99.90;;;;;;5066164;28;20620;-63
2022/11/22 07:35:56;;;;;;;9.27;2.80;;;5.90;99.90;;;;;;5070161;28;20212;-62
2022/11/22 07:38:26;;;;;;;18.05;4.00;;;5.90;99.90;;;;;;5068718;28;20204;-61
2022/11/22 07:40:54;;;;;;;7.82;2.45;;;5.90;99.90;;;;;;5071579;28;20690;-61
2022/11/22 07:43:22;;;;;;;5.45;2.05;;;5.90;99.90;;;;;;5072811;28;20238;-62
2022/11/22 07:45:50;;;;;;;8.73;3.05;;;5.90;99.90;;;;;;5052768;28;20189;-63
2022/11/22 07:48:18;;;;;;;3.90;2.30;;;6.00;99.90;;;;;;5064079;28;20211;-63
2022/11/22 07:50:46;;;;;;;10.85;2.53;;;6.10;99.90;;;;;;5072794;28;20204;-63
2022/11/22 07:53:13;;;;;;;5.03;2.40;;;6.20;99.90;;;;;;5067617;28;20208;-62
2022/11/22 07:55:43;;;;;;;6.30;2.22;;;6.30;99.90;;;;;;5059521;28;20274;-63
2022/11/22 07:58:10;;;;;;;12.65;2.38;;;6.30;99.90;;;;;;5058800;28;20208;-63
2022/11/22 08:00:39;;;;;;;7.90;2.28;;;6.40;99.90;;;;;;5053314;28;20558;-63
2022/11/22 08:03:07;;;;;;;6.28;1.80;;;6.40;99.90;;;;;;5061521;28;20549;-65
2022/11/22 08:05:35;;;;;;;11.52;2.70;;;6.50;99.90;;;;;;5057043;28;20201;-64
2022/11/22 08:08:03;;;;;;;11.32;3.22;;;6.50;99.90;;;;;;5060833;28;20204;-64
2022/11/22 08:10:30;;;;;;;8.32;2.10;;;6.50;99.90;;;;;;5058838;28;20192;-64
2022/11/22 08:13:00;;;;;;;7.72;2.75;;;6.40;99.90;;;;;;5056595;28;20184;-65
2022/11/22 08:15:28;;;;;;;9.70;4.15;;;6.40;99.90;;;;;;5066656;28;20216;-64
2022/11/22 08:17:56;;;;;;;13.93;3.08;;;6.40;99.90;;;;;;5058529;28;20201;-64
2022/11/22 08:20:24;;;;;;;14.25;2.90;;;6.40;99.90;;;;;;5052227;28;20568;-63
2022/11/22 08:22:52;;;;;;;6.35;1.90;;;6.30;99.90;;;;;;5063914;28;20211;-64
2022/11/22 08:25:19;;;;;;;11.10;2.42;;;6.30;99.90;;;;;;5053801;28;20655;-64
2022/11/22 08:27:47;;;;;;;6.05;2.72;;;6.40;99.90;;;;;;5071589;28;20253;-64
2022/11/22 08:30:17;;;;;;;18.40;4.15;;;6.40;99.90;;;;;;5054406;28;20187;-64
2022/11/22 08:32:44;;;;;;;9.35;2.78;;;6.40;99.90;;;;;;5059840;28;20230;-64
2022/11/22 08:35:12;;;;;;;8.10;3.58;;;6.40;99.90;;;;;;5055623;28;20293;-65
2022/11/22 08:37:40;;;;;;;10.10;3.88;;;6.40;99.90;;;;;;5068804;28;20196;-65
2022/11/22 08:40:09;;;;;;;8.63;2.33;;;6.40;99.90;;;;;;5070601;28;20192;-64
2022/11/22 08:42:37;;;;;;;15.20;2.67;;;6.40;99.90;;;;;;5066470;28;20606;-66
2022/11/22 08:45:06;;;;;;;7.93;2.60;;;6.40;99.90;;;;;;5065071;28;20188;-65
2022/11/22 08:47:36;;;;;;;5.53;2.28;;;6.40;99.90;;;;;;5054909;28;20196;-64
2022/11/22 08:50:04;;;;;;;8.60;2.92;;;6.50;99.90;;;;;;5064393;28;20203;-64
2022/11/22 08:52:34;;;;;;;10.25;2.75;;;6.50;99.90;;;;;;5059585;28;20270;-64
2022/11/22 08:55:02;;;;;;;14.82;3.00;;;6.60;99.90;;;;;;5061614;28;20223;-63
2022/11/22 08:57:30;;;;;;;11.73;3.45;;;6.60;99.90;;;;;;5051309;28;20540;-64
2022/11/22 08:59:58;;;;;;;7.60;3.03;;;6.70;99.90;;;;;;5052702;28;20204;-64
2022/11/22 09:02:26;;;;;;;8.55;2.80;;;6.70;99.90;;;;;;5064432;28;20736;-64
2022/11/22 09:04:55;;;;;;;11.63;2.90;;;6.70;99.90;;;;;;5068637;28;20200;-64
2022/11/22 09:07:23;;;;;;;10.13;3.28;;;6.70;99.90;;;;;;5067460;28;20188;-63
2022/11/22 09:09:51;;;;;;;7.80;2.72;;;6.80;99.90;;;;;;5071559;28;20203;-63
2022/11/22 09:12:19;;;;;;;7.90;2.75;;;6.90;99.90;;;;;;5068381;28;20281;-63
2022/11/22 09:14:47;;;;;;;9.25;2.95;;;6.90;99.90;;;;;;5070055;28;20203;-64
2022/11/22 09:17:14;;;;;;;5.80;3.15;;;6.90;99.90;;;;;;5055347;28;20585;-64
2022/11/22 09:19:43;;;;;;;6.97;2.70;;;6.80;99.90;;;;;;5054949;28;20208;-64
2022/11/22 09:22:12;;;;;;;8.55;3.90;;;6.90;99.90;;;;;;5061002;28;20250;-64
2022/11/22 09:24:40;;;;;;;12.07;3.42;;;7.00;99.90;;;;;;5063397;28;20278;-64
2022/11/22 09:27:07;;;;;;;12.48;2.83;;;7.00;99.90;;;;;;5059668;28;20199;-64
2022/11/22 09:29:35;;;;;;;4.80;2.78;;;7.10;99.90;;;;;;5051474;28;20243;-66
2022/11/22 09:32:03;;;;;;;4.97;2.97;;;7.20;99.90;;;;;;5053666;28;20204;-64
2022/11/22 09:34:31;;;;;;;8.00;2.80;;;7.30;99.90;;;;;;5069598;28;20208;-64
2022/11/22 09:37:00;;;;;;;8.15;3.50;;;7.40;99.90;;;;;;5054312;28;20584;-64
2022/11/22 09:39:29;;;;;;;10.27;3.03;;;7.40;99.90;;;;;;5064549;28;20546;-63
2022/11/22 09:42:18;;;;;;;9.68;3.08;;;7.40;99.90;;;;;;5054253;28;20197;-64
2022/11/22 09:45:07;;;;;;;6.85;2.42;;;7.30;99.90;;;;;;5064308;28;20245;-63
2022/11/22 09:47:42;;;;;;;10.77;3.25;;;7.30;99.90;;;;;;5069565;28;20219;-67
2022/11/22 09:50:18;;;;;;;3.47;2.53;;;7.30;99.90;;;;;;5052597;28;20192;-61
2022/11/22 09:52:53;;;;;;;5.72;2.30;;;7.30;99.90;;;;;;5055359;28;20600;-62
2022/11/22 09:55:27;;;;;;;10.30;2.83;;;7.30;99.90;;;;;;5057985;28;20200;-63
2022/11/22 09:58:04;;;;;;;4.45;1.50;;;7.30;99.90;;;;;;5052075;28;20189;-63
2022/11/22 10:00:32;;;;;;;4.28;2.17;;;7.40;99.90;;;;;;5061684;28;20231;-63
2022/11/22 10:03:07;;;;;;;7.90;2.35;;;7.50;99.90;;;;;;5068649;28;20200;-64
2022/11/22 10:05:47;;;;;;;10.52;2.20;;;7.50;99.90;;;;;;5074014;28;20679;-64
2022/11/22 10:08:26;;;;;;;3.75;1.88;;;7.50;99.90;;;;;;5057049;28;20200;-63
2022/11/22 10:10:58;;;;;;;5.65;2.25;;;7.60;99.90;;;;;;5055263;28;20231;-63
2022/11/22 10:13:33;;;;;;;6.63;2.10;;;7.70;99.90;;;;;;5067743;28;20413;-65
2022/11/22 10:16:09;;;;;;;7.95;2.53;;;7.70;99.90;;;;;;5058666;28;20215;-63
2022/11/22 10:18:41;;;;;;;10.65;1.70;;;7.70;99.90;;;;;;5059575;28;20589;-64
2022/11/22 10:21:12;;;;;;;7.50;2.05;;;7.70;99.90;;;;;;5054606;28;20188;-63
2022/11/22 10:23:41;;;;;;;12.38;2.30;;;7.70;99.90;;;;;;5065995;28;20192;-64
2022/11/22 10:26:22;;;;;;;3.40;2.28;;;7.80;99.90;;;;;;5064582;28;20192;-64
2022/11/22 10:29:03;;;;;;;6.65;2.55;;;7.80;99.90;;;;;;5066478;28;20226;-65
2022/11/22 10:31:40;;;;;;;7.13;2.40;;;8.00;99.90;;;;;;5056967;28;20203;-65
2022/11/22 10:34:16;;;;;;;7.15;1.92;;;8.00;99.90;;;;;;5055583;28;20193;-63
2022/11/22 10:36:50;;;;;;;7.68;2.17;;;8.10;99.90;;;;;;5060747;28;20241;-64
2022/11/22 10:39:26;;;;;;;6.20;2.13;;;8.10;99.90;;;;;;5069023;28;20198;-65
2022/11/22 10:42:09;;;;;;;4.38;2.03;;;8.20;99.90;;;;;;5071666;28;20176;-65
2022/11/22 10:44:48;;;;;;;5.32;2.47;;;8.30;99.90;;;;;;5071937;28;20192;-66
2022/11/22 10:47:30;;;;;;;4.40;2.22;;;8.40;99.90;;;;;;5056235;28;20659;-64
2022/11/22 10:50:04;;;;;;;11.88;5.30;;;8.50;99.90;;;;;;5052919;28;20203;-64
2022/11/22 10:52:43;;;;;;;10.57;4.70;;;8.50;99.90;;;;;;5055849;28;20185;-61
2022/11/22 10:55:23;;;;;;;10.65;4.05;;;8.40;99.90;;;;;;5058756;28;20670;-64
2022/11/22 10:58:02;;;;;;;8.40;2.58;;;8.50;99.90;;;;;;5054315;28;20566;-64
2022/11/22 11:00:32;;;;;;;11.80;4.95;;;8.50;99.90;;;;;;5057600;28;20208;-63
2022/11/22 11:03:13;;;;;;;8.25;3.95;;;8.50;99.90;;;;;;5052532;28;20192;-64
2022/11/22 11:05:46;;;;;;;6.90;2.30;;;8.70;99.90;;;;;;5052272;28;20185;-64
2022/11/22 11:08:21;;;;;;;5.70;2.30;;;8.70;99.90;;;;;;5062212;28;20185;-65
2022/11/22 11:10:49;;;;;;;8.15;3.00;;;8.70;99.90;;;;;;5058525;28;20250;-64
2022/11/22 11:13:23;;;;;;;8.73;2.05;;;8.80;99.90;;;;;;5061412;28;20192;-64
2022/11/22 11:15:54;;;;;;;8.50;3.75;;;8.80;99.90;;;;;;5055532;28;20204;-63
2022/11/22 11:18:27;;;;;;;8.95;5.25;;;8.70;99.90;;;;;;5053551;28;20574;-63
2022/11/22 11:20:54;;;;;;;14.02;6.68;;;8.80;99.90;;;;;;5052748;28;20265;-62
2022/11/22 11:23:23;;;;;;;11.82;6.15;;;8.80;99.90;;;;;;5072613;28;20659;-63
2022/11/22 11:25:51;;;;;;;12.48;4.35;;;8.90;99.90;;;;;;5064201;28;20208;-62
2022/11/22 11:28:23;;;;;;;13.48;6.75;;;8.80;99.90;;;;;;5070357;28;20302;-63
2022/11/22 11:30:54;;;;;;;15.93;7.57;;;8.90;99.90;;;;;;5070801;28;20207;-62
2022/11/22 11:33:27;;;;;;;6.25;3.50;;;8.80;99.90;;;;;;5073080;28;20203;-62
2022/11/22 11:36:03;;;;;;;10.63;3.20;;;8.80;99.90;;;;;;5069131;28;20204;-62
2022/11/22 11:38:34;;;;;;;8.57;2.85;;;8.80;99.90;;;;;;5056879;28;20205;-63
2022/11/22 11:41:27;;;;;;;13.52;3.00;;;8.90;99.90;;;;;;5058381;28;20197;-64
2022/11/22 11:43:58;;;;;;;11.57;3.65;;;8.90;99.90;;;;;;5057490;28;20197;-62
2022/11/22 11:46:28;;;;;;;7.95;1.85;;;8.80;99.90;;;;;;5057403;28;20189;-62
2022/11/22 11:49:08;;;;;;;5.75;2.92;;;8.90;99.90;;;;;;5057990;28;20196;-62
2022/11/22 11:51:38;;;;;;;4.97;2.00;;;8.90;99.90;;;;;;5052074;28;20658;-62
2022/11/22 11:54:11;;;;;;;11.93;3.50;;;8.80;99.90;;;;;;5066056;28;20257;-62
2022/11/22 11:56:50;;;;;;;8.55;3.10;;;8.80;99.90;;;;;;5057249;28;20205;-62
2022/11/22 11:59:21;;;;;;;10.15;3.45;;;8.80;99.90;;;;;;5056810;28;20207;-60
2022/11/22 12:01:54;;;;;;;4.68;1.48;;;8.80;99.90;;;;;;5057349;28;20180;-62
2022/11/22 12:04:25;;;;;;;10.75;2.42;;;8.80;99.90;;;;;;5052675;28;20200;-61
2022/11/22 12:06:55;;;;;;;4.55;1.88;;;8.80;99.90;;;;;;5060127;28;20558;-60
2022/11/22 12:09:30;;;;;;;6.35;1.70;;;8.80;99.90;;;;;;5066377;28;20193;-61
2022/11/22 12:12:05;;;;;;;7.32;1.90;;;8.90;99.90;;;;;;5049989;28;20246;-62
2022/11/22 12:14:37;;;;;;;7.50;2.90;;;9.00;99.90;;;;;;5060279;28;20192;-62
2022/11/22 12:17:13;;;;;;;5.32;1.65;;;9.10;99.90;;;;;;5062681;28;20251;-62
2022/11/22 12:19:49;;;;;;;8.32;2.25;;;9.10;99.90;;;;;;5059444;28;20188;-62
2022/11/22 12:22:23;;;;;;;5.60;1.92;;;9.10;99.90;;;;;;5058715;28;20211;-62
2022/11/22 12:24:57;;;;;;;10.35;2.08;;;9.20;99.90;;;;;;5061338;28;20242;-61
2022/11/22 12:27:25;;;;;;;7.70;2.20;;;9.10;99.90;;;;;;5059245;28;20572;-61
2022/11/22 12:29:54;;;;;;;9.35;2.22;;;9.10;99.90;;;;;;5059804;28;20224;-63
2022/11/22 12:32:26;;;;;;;7.68;2.30;;;9.30;99.90;;;;;;5060567;28;20192;-62
2022/11/22 12:34:58;;;;;;;6.68;2.72;;;9.40;99.90;;;;;;5062904;28;20222;-62
2022/11/22 12:37:31;;;;;;;4.55;2.70;;;9.40;99.90;;;;;;5060002;28;20218;-62
2022/11/22 12:40:05;;;;;;;6.30;1.80;;;9.50;99.90;;;;;;5057231;28;20197;-61
2022/11/22 12:42:40;;;;;;;6.72;2.30;;;9.50;99.90;;;;;;5052788;28;20180;-62
2022/11/22 12:45:23;;;;;;;5.15;1.75;;;9.60;99.90;;;;;;5051466;28;20565;-61
2022/11/22 12:47:54;;;;;;;4.15;1.60;;;9.50;99.90;;;;;;5069829;28;20184;-60
2022/11/22 12:50:29;;;;;;;2.90;1.95;;;9.40;99.90;;;;;;5058703;28;20530;-61
2022/11/22 12:53:02;;;;;;;4.40;2.42;;;9.30;99.90;;;;;;5051165;28;20657;-62
2022/11/22 12:55:42;;;;;;;3.88;2.17;;;9.30;99.90;;;;;;5061318;28;20196;-62
2022/11/22 12:58:19;;;;;;;2.78;1.50;;;9.40;99.90;;;;;;5059155;28;20200;-62
2022/11/22 13:01:00;;;;;;;4.10;2.00;;;9.40;99.90;;;;;;5057463;28;20192;-62
2022/11/22 13:03:35;;;;;;;4.55;2.15;;;9.30;99.90;;;;;;5067998;28;20665;-62
2022/11/22 13:06:06;;;;;;;4.15;1.70;;;9.30;99.90;;;;;;5054478;28;20203;-62
2022/11/22 13:08:40;;;;;;;9.75;1.45;;;9.30;99.90;;;;;;5070067;28;20184;-62
2022/11/22 13:11:15;;;;;;;3.40;1.30;;;9.20;99.90;;;;;;5069892;28;20234;-62
2022/11/22 13:13:46;;;;;;;2.25;1.10;;;9.20;99.90;;;;;;5053201;28;20195;-62
2022/11/22 13:16:16;;;;;;;5.95;1.48;;;9.20;99.90;;;;;;5071826;28;20549;-62
2022/11/22 13:18:47;;;;;;;1.30;1.10;;;9.10;99.90;;;;;;5060440;28;20208;-62
2022/11/22 13:21:22;;;;;;;2.35;1.80;;;9.00;99.90;;;;;;5054429;28;20651;-62